Flight Track Log - Related Links

Times and Time Zones

All times are in EDT time to prevent confusion due to time zone crossing. See the N507PD flight status page for this flight to view local times or setup timezone preferences in your user account.

Time Position Orientation Groundspeed Altitude Reporting Facility
EDT Latitude Longitude Course Direction KTS MPH feet Rate Location/Type
Mon 08:19:32 AM 38.5333 -90.1000 65° Northeast 230 265 2,400  Level Gateway (St. Louis) TRACON
Mon 08:20:44 AM 38.5661 -90.0108 65° Northeast 229 264 6,100 3,068 Climbing Kansas City Center
Mon 08:21:45 AM 38.6053 -89.9381 55° Northeast 239 275 9,200 3,171 Climbing Kansas City Center
Mon 08:22:47 AM 38.6425 -89.8592 59° Northeast 254 292 12,600 2,976 Climbing Kansas City Center
Mon 08:23:48 AM 38.6806 -89.7792 59° Northeast 262 302 15,300 2,754 Climbing Kansas City Center
Mon 08:25:00 AM 38.7402 -89.6463 60° Northeast  Level FlightAware Approximate
Mon 08:25:50 AM 38.7672 -89.5947 60° Northeast 284 327 21,000  Level Kansas City Center
Mon 08:26:52 AM 38.7953 -89.4922 71° East 284 327 24,000 2,780 Climbing Kansas City Center
Mon 08:27:53 AM 38.8069 -89.3925 81° East 283 326 26,700 2,656 Climbing Kansas City Center
Mon 08:28:54 AM 38.8183 -89.2981 81° East 270 311 29,400 2,508 Climbing Kansas City Center
Mon 08:29:55 AM 38.8303 -89.2086 80° East 257 296 31,800 2,000 Climbing Kansas City Center
Mon 08:30:57 AM 38.8439 -89.1122 80° East 256 295 33,500 1,415 Climbing Kansas City Center
Mon 08:31:58 AM 38.8561 -89.0128 81° East 277 319 34,700 1,082 Climbing Kansas City Center
Mon 08:32:59 AM 38.8689 -88.9167 80° East 297 342 35,700 1,024 Climbing Kansas City Center
Mon 08:34:01 AM 38.8822 -88.8072 81° East 308 354 36,800 1,038 Climbing Kansas City Center
Mon 08:36:04 AM 38.9119 -88.5572 81° East 323 372 38,900 832 Climbing Kansas City Center
Mon 08:39:04 AM 38.9953 -88.2164 72° East 335 386 41,000 523 Climbing Indianapolis Center
Mon 08:40:05 AM 39.0272 -88.0972 71° East 347 399 41,000  Level Indianapolis Center
Mon 08:41:07 AM 39.0728 -87.9775 64° Northeast 365 420 41,000  Level Indianapolis Center
Mon 08:42:08 AM 39.1189 -87.8547 64° Northeast 377 434 41,000  Level Indianapolis Center
Mon 08:43:10 AM 39.1694 -87.7317 62° Northeast 385 443 41,000  Level Indianapolis Center
Mon 08:44:11 AM 39.2225 -87.5997 63° Northeast 395 455 41,000  Level Indianapolis Center
Mon 08:46:14 AM 39.3250 -87.3464 62° Northeast 400 460 41,000  Level Indianapolis Center
Mon 08:48:18 AM 39.4261 -87.0897 63° Northeast 402 463 41,000  Level Indianapolis Center
Mon 08:49:19 AM 39.4881 -86.9358 62° Northeast 403 464 41,000  Level Indianapolis Center
Mon 08:50:21 AM 39.5386 -86.8078 63° Northeast 403 464 41,000  Level Indianapolis Center
Mon 08:52:00 AM 39.6126 -86.6191 63° Northeast  Level FlightAware Approximate
Mon 08:53:25 AM 39.6908 -86.4156 63° Northeast 397 457 41,000  Level Indianapolis Center
Mon 08:54:27 AM 39.7411 -86.2872 63° Northeast 397 457 41,000  Level Indianapolis Center
Mon 08:55:29 AM 39.7903 -86.1589 63° Northeast 395 455 41,000  Level Indianapolis Center
Mon 08:57:00 AM 39.8574 -85.9843 63° Northeast  Level FlightAware Approximate
Mon 08:57:32 AM 39.8875 -85.9053 63° Northeast 390 449 41,000  Level Indianapolis Center
Mon 08:58:33 AM 39.9350 -85.7803 64° Northeast 388 447 41,000  Level Indianapolis Center
Mon 08:59:35 AM 39.9828 -85.6550 64° Northeast 387 445 41,000  Level Indianapolis Center
Mon 09:01:00 AM 40.0448 -85.4910 64° Northeast  Level FlightAware Approximate
Mon 09:01:38 AM 40.0864 -85.3803 64° Northeast 386 444 41,000  Level Indianapolis Center
Mon 09:02:40 AM 40.1328 -85.2547 64° Northeast 386 444 41,000  Level Indianapolis Center
Mon 09:03:41 AM 40.1794 -85.1294 64° Northeast 386 444 41,000  Level Indianapolis Center
Mon 09:05:00 AM 40.2331 -84.9741 65° Northeast  Level FlightAware Approximate
Mon 09:07:48 AM 40.3675 -84.6178 65° Northeast 387 445 41,000  Level Indianapolis Center
Mon 09:10:00 AM 40.4592 -84.3587 65° Northeast  Level FlightAware Approximate
Mon 09:10:49 AM 40.5111 -84.2319 65° Northeast 394 453 41,000  Level Cleveland Center
Mon 09:11:49 AM 40.5569 -84.1006 65° Northeast 399 459 41,000  Level Cleveland Center
Mon 09:12:00 AM 40.5314 -84.1543 65° Northeast  Level FlightAware Approximate
Mon 09:12:57 AM 40.6097 -83.9456 66° East 392 451 41,000  Level Indianapolis Center
Mon 09:13:00 AM 40.5723 -84.0358 65° Northeast  Level FlightAware Approximate
Mon 09:14:48 AM 40.7000 -83.6972 64° Northeast 393 452 41,000  Level Cleveland Center
Mon 09:15:49 AM 40.7472 -83.5650 65° Northeast 399 459 41,000  Level Cleveland Center
Mon 09:18:51 AM 40.8886 -83.1622 65° Northeast 399 459 41,000  Level Cleveland Center
Mon 09:19:48 AM 40.9311 -83.0264 67° East 394 453 41,000  Level Cleveland Center
Mon 09:20:49 AM 40.9756 -82.8933 66° East 395 455 41,000  Level Cleveland Center
Mon 09:22:51 AM 41.0703 -82.6211 65° Northeast 395 455 41,000  Level Cleveland Center
Mon 09:23:49 AM 41.1122 -82.4958 66° East 401 461 41,000  Level Cleveland Center
Mon 09:25:50 AM 41.2061 -82.2225 65° Northeast 401 461 41,000  Level Cleveland Center
Mon 09:26:51 AM 41.2517 -82.0856 66° East 406 467 41,000  Level Cleveland Center
Mon 09:27:48 AM 41.2889 -81.9456 70° East 406 467 41,000  Level Cleveland Center
Mon 09:28:49 AM 41.3239 -81.8053 73° East 399 459 41,000  Level Cleveland Center
Mon 09:29:00 AM 41.3240 -81.7957 73° East  Level FlightAware Approximate
Mon 09:30:48 AM 41.3933 -81.5131 72° East 393 452 41,000  Level Cleveland Center
Mon 09:31:49 AM 41.4236 -81.3861 72° East 393 452 41,000  Level Cleveland Center
Mon 09:33:00 AM 41.4566 -81.2374 73° East  Level FlightAware Approximate
Mon 09:35:50 AM 41.5594 -80.8189 73° East 398 458 41,000  Level Cleveland Center
Mon 09:36:51 AM 41.5931 -80.6803 72° East 398 458 41,000  Level Cleveland Center
Mon 09:38:00 AM 41.6145 -80.5319 79° East  Level FlightAware Approximate
Mon 09:39:51 AM 41.6947 -80.2411 73° East 398 458 41,000  Level Cleveland Center
Mon 09:40:00 AM 41.6565 -80.3577 71° East  Level FlightAware Approximate
Mon 09:40:48 AM 41.7297 -80.0964 72° East 405 466 41,000  Level Cleveland Center
Mon 09:41:00 AM 41.6872 -80.2328 73° East  Level FlightAware Approximate
Mon 09:41:48 AM 41.7622 -79.9542 73° East 405 466 41,000  Level Cleveland Center
Mon 09:43:00 AM 41.7950 -79.8023 74° East  Level FlightAware Approximate
Mon 09:43:49 AM 41.8272 -79.6692 74° East 400 460 41,000  Level Cleveland Center
Mon 09:44:49 AM 41.8572 -79.5378 73° East 400 460 41,000  Level Cleveland Center
Mon 09:45:00 AM 41.8176 -79.6509 73° East  Level FlightAware Approximate
Mon 09:45:50 AM 41.8892 -79.3922 74° East 400 460 41,000  Level Cleveland Center
Mon 09:46:51 AM 41.9231 -79.2464 73° East 405 466 41,000  Level Cleveland Center
Mon 09:47:49 AM 41.9525 -79.1006 75° East 405 466 41,000  Level Cleveland Center
Mon 09:48:49 AM 41.9858 -78.9517 73° East 405 466 41,000  Level Cleveland Center
Mon 09:49:50 AM 42.0172 -78.8056 74° East 400 460 41,000  Level Cleveland Center
Mon 09:51:00 AM 42.0438 -78.6554 77° East  Level FlightAware Approximate
Mon 09:52:49 AM 42.1156 -78.3494 74° East 405 466 41,000  Level Cleveland Center
Mon 09:53:50 AM 42.1458 -78.2000 75° East 405 466 41,000  Level Cleveland Center
Mon 09:54:50 AM 42.1742 -78.0644 74° East 405 466 41,000 -371 Level Cleveland Center
Mon 09:56:00 AM 42.1993 -77.9119 77° East  Level FlightAware Approximate
Mon 09:56:48 AM 42.2361 -77.7647 77° East 405 466 39,900  Level Cleveland Center
Mon 09:57:48 AM 42.2658 -77.6172 75° East 405 466 38,900 -1,028 Descending Cleveland Center
Mon 09:58:00 AM 42.2215 -77.7593 74° East  Level FlightAware Approximate
Mon 09:59:00 AM 42.2814 -77.4563 73° East  Level FlightAware Approximate
Mon 09:59:49 AM 42.3244 -77.3197 73° East 400 460 36,800  Level Cleveland Center
Mon 10:01:00 AM 42.3443 -77.1620 75° East  Level FlightAware Approximate
Mon 10:02:38 AM 42.4158 -76.8731 75° East 408 470 33,700  Level Boston Center
Mon 10:04:00 AM 42.4483 -76.6946 76° East  Level FlightAware Approximate
Mon 10:06:38 AM 42.4639 -76.3019 106° East 407 468 33,000  Level Boston Center
Mon 10:08:00 AM 42.4199 -76.1281 109° East  Level FlightAware Approximate
Mon 10:08:38 AM 42.3933 -75.9742 109° East 427 491 32,000  Level Boston Center
Mon 10:10:00 AM 42.3526 -75.7990 107° East  Level FlightAware Approximate
Mon 10:10:38 AM 42.3294 -75.6672 107° East 427 491 28,500  Level Boston Center
Mon 10:11:00 AM 42.3433 -75.7857 106° East  Level FlightAware Approximate
Mon 10:11:50 AM 42.3003 -75.5197 105° East 427 491 26,200  Level Boston Center
Mon 10:12:00 AM 42.3154 -75.6569 106° East  Level FlightAware Approximate
Mon 10:13:00 AM 42.2600 -75.3733 98° East  Level FlightAware Approximate
Mon 10:13:50 AM 42.2275 -75.1822 98° East 408 470 20,800  Level Boston Center
Mon 10:15:50 AM 42.1708 -74.9361 107° East 353 406 18,000 -808 Descending Boston Center
Mon 10:17:00 AM 42.1110 -74.8024 121° Southeast  Level FlightAware Approximate
Mon 10:19:02 AM 42.0197 -74.5781 129° Southeast 358 412 16,600  Level Boston Center
Mon 10:20:02 AM 41.9656 -74.4533 120° Southeast 352 405 15,500 -1,100 Descending Boston Center
Mon 10:22:02 AM 41.8222 -74.3039 142° Southeast 328 377 13,300 -1,033 Descending Boston Center
Mon 10:23:02 AM 41.7481 -74.2517 152° Southeast 333 383 12,400 -955 Descending Boston Center
Mon 10:24:00 AM 41.7540 -74.0065 129° Southeast  Level FlightAware Approximate
Mon 10:24:14 AM 41.6658 -74.1825 148° Southeast 320 368 11,200  Level Boston Center
Mon 10:25:14 AM 41.5772 -74.1106 149° Southeast 314 361 9,900 -1,200 Descending Boston Center
Mon 10:26:14 AM 41.5094 -74.0533 148° Southeast 308 354 8,800 -1,101 Descending Boston Center
Mon 10:28:03 AM 41.3833 -73.9500 148° Southeast 274 315 6,800 -1,100 Descending New York TRACON
Mon 10:30:00 AM 41.2681 -73.7261 151° Southeast  Level FlightAware Approximate
Mon 10:33:03 AM 41.1000 -73.7333 246° West 184 212 1,300  Level New York TRACON
Mon 10:35:00 AM 41.0667 -73.7000 246° West  Level FlightAware Approximate
Mon 10:37:00 AM 41.0667 -73.7000 246° West  Level FlightAware Approximate
Mon 10:38:00 AM 41.0669 -73.7076 246° West  Level Estimated
Mon 10:42:00 AM 41.0669 -73.7076 246° West  Level Estimated
Mon 10:43:00 AM 41.0667 -73.7000 246° West  Level FlightAware Approximate

Login

Don't have an account? Register now (free) for customized features, flight alerts, and more!